sensor_id;sensor_type;location;lat;lon;timestamp;P1;durP1;ratioP1;P2;durP2;ratioP2
39788;SDS011;25478;42.626;23.320;2022-07-04T00:00:21;12.65;;;9.50;;
39788;SDS011;25478;42.626;23.320;2022-07-04T00:02:47;11.70;;;9.48;;
39788;SDS011;25478;42.626;23.320;2022-07-04T00:05:14;12.82;;;9.88;;
39788;SDS011;25478;42.626;23.320;2022-07-04T00:07:40;13.82;;;10.45;;
39788;SDS011;25478;42.626;23.320;2022-07-04T00:10:08;11.38;;;9.18;;
39788;SDS011;25478;42.626;23.320;2022-07-04T00:12:34;13.00;;;9.32;;
39788;SDS011;25478;42.626;23.320;2022-07-04T00:15:01;11.23;;;9.30;;
39788;SDS011;25478;42.626;23.320;2022-07-04T00:17:27;13.32;;;10.00;;
39788;SDS011;25478;42.626;23.320;2022-07-04T00:19:52;12.43;;;9.27;;
39788;SDS011;25478;42.626;23.320;2022-07-04T00:22:18;11.80;;;9.75;;
39788;SDS011;25478;42.626;23.320;2022-07-04T00:24:44;13.35;;;9.57;;
39788;SDS011;25478;42.626;23.320;2022-07-04T00:27:09;15.27;;;9.88;;
39788;SDS011;25478;42.626;23.320;2022-07-04T00:29:34;13.57;;;9.55;;
39788;SDS011;25478;42.626;23.320;2022-07-04T00:32:00;12.40;;;9.25;;
39788;SDS011;25478;42.626;23.320;2022-07-04T00:34:26;18.40;;;9.23;;
39788;SDS011;25478;42.626;23.320;2022-07-04T00:36:52;11.35;;;9.13;;
39788;SDS011;25478;42.626;23.320;2022-07-04T00:39:18;11.65;;;9.77;;
39788;SDS011;25478;42.626;23.320;2022-07-04T00:41:43;13.13;;;9.93;;
39788;SDS011;25478;42.626;23.320;2022-07-04T00:44:10;11.90;;;9.77;;
39788;SDS011;25478;42.626;23.320;2022-07-04T00:46:37;13.85;;;10.20;;
39788;SDS011;25478;42.626;23.320;2022-07-04T00:49:03;12.32;;;9.95;;
39788;SDS011;25478;42.626;23.320;2022-07-04T00:51:29;13.10;;;9.85;;
39788;SDS011;25478;42.626;23.320;2022-07-04T00:53:55;13.85;;;9.32;;
39788;SDS011;25478;42.626;23.320;2022-07-04T00:56:22;13.18;;;10.18;;
39788;SDS011;25478;42.626;23.320;2022-07-04T00:58:48;12.52;;;10.20;;
39788;SDS011;25478;42.626;23.320;2022-07-04T01:01:14;11.88;;;9.85;;
39788;SDS011;25478;42.626;23.320;2022-07-04T01:03:39;11.82;;;9.45;;
39788;SDS011;25478;42.626;23.320;2022-07-04T01:06:06;13.07;;;9.75;;
39788;SDS011;25478;42.626;23.320;2022-07-04T01:08:36;12.05;;;9.32;;
39788;SDS011;25478;42.626;23.320;2022-07-04T01:11:03;13.50;;;9.95;;
39788;SDS011;25478;42.626;23.320;2022-07-04T01:13:28;15.35;;;10.85;;
39788;SDS011;25478;42.626;23.320;2022-07-04T01:15:54;14.88;;;10.10;;
39788;SDS011;25478;42.626;23.320;2022-07-04T01:18:20;11.63;;;9.90;;
39788;SDS011;25478;42.626;23.320;2022-07-04T01:20:46;12.32;;;10.80;;
39788;SDS011;25478;42.626;23.320;2022-07-04T01:23:11;13.85;;;10.18;;
39788;SDS011;25478;42.626;23.320;2022-07-04T01:25:37;12.07;;;9.98;;
39788;SDS011;25478;42.626;23.320;2022-07-04T01:28:03;13.88;;;10.65;;
39788;SDS011;25478;42.626;23.320;2022-07-04T01:30:29;14.40;;;10.73;;
39788;SDS011;25478;42.626;23.320;2022-07-04T01:32:55;14.57;;;10.93;;
39788;SDS011;25478;42.626;23.320;2022-07-04T01:35:22;14.88;;;10.43;;
39788;SDS011;25478;42.626;23.320;2022-07-04T01:37:48;16.60;;;10.85;;
39788;SDS011;25478;42.626;23.320;2022-07-04T01:40:14;13.43;;;10.68;;
39788;SDS011;25478;42.626;23.320;2022-07-04T01:42:40;13.88;;;9.88;;
39788;SDS011;25478;42.626;23.320;2022-07-04T01:45:07;12.70;;;10.30;;
39788;SDS011;25478;42.626;23.320;2022-07-04T01:47:33;12.60;;;10.20;;
39788;SDS011;25478;42.626;23.320;2022-07-04T01:49:59;11.75;;;9.77;;
39788;SDS011;25478;42.626;23.320;2022-07-04T01:52:25;12.80;;;9.23;;
39788;SDS011;25478;42.626;23.320;2022-07-04T01:54:51;13.20;;;9.98;;
39788;SDS011;25478;42.626;23.320;2022-07-04T01:57:16;11.93;;;9.63;;
39788;SDS011;25478;42.626;23.320;2022-07-04T01:59:42;14.18;;;9.15;;
39788;SDS011;25478;42.626;23.320;2022-07-04T02:04:52;13.98;;;9.32;;
39788;SDS011;25478;42.626;23.320;2022-07-04T02:07:18;15.32;;;9.68;;
39788;SDS011;25478;42.626;23.320;2022-07-04T02:09:43;11.68;;;9.15;;
39788;SDS011;25478;42.626;23.320;2022-07-04T02:12:09;13.25;;;9.57;;
39788;SDS011;25478;42.626;23.320;2022-07-04T02:14:53;12.57;;;9.75;;
39788;SDS011;25478;42.626;23.320;2022-07-04T02:17:18;13.20;;;9.95;;
39788;SDS011;25478;42.626;23.320;2022-07-04T02:19:44;16.70;;;10.68;;
39788;SDS011;25478;42.626;23.320;2022-07-04T02:22:10;11.95;;;9.93;;
39788;SDS011;25478;42.626;23.320;2022-07-04T02:24:36;13.15;;;10.75;;
39788;SDS011;25478;42.626;23.320;2022-07-04T02:27:01;12.82;;;10.25;;
39788;SDS011;25478;42.626;23.320;2022-07-04T02:29:27;16.08;;;11.25;;
39788;SDS011;25478;42.626;23.320;2022-07-04T02:31:53;12.15;;;10.35;;
39788;SDS011;25478;42.626;23.320;2022-07-04T02:34:18;14.77;;;10.48;;
39788;SDS011;25478;42.626;23.320;2022-07-04T02:36:44;13.40;;;9.55;;
39788;SDS011;25478;42.626;23.320;2022-07-04T02:39:10;12.50;;;10.18;;
39788;SDS011;25478;42.626;23.320;2022-07-04T02:41:35;14.40;;;9.43;;
39788;SDS011;25478;42.626;23.320;2022-07-04T02:44:02;14.02;;;9.77;;
39788;SDS011;25478;42.626;23.320;2022-07-04T02:46:27;13.70;;;10.82;;
39788;SDS011;25478;42.626;23.320;2022-07-04T02:48:53;13.65;;;10.57;;
39788;SDS011;25478;42.626;23.320;2022-07-04T02:51:19;14.93;;;10.55;;
39788;SDS011;25478;42.626;23.320;2022-07-04T02:53:44;12.40;;;10.07;;
39788;SDS011;25478;42.626;23.320;2022-07-04T02:56:11;14.10;;;10.20;;
39788;SDS011;25478;42.626;23.320;2022-07-04T02:58:36;13.10;;;10.43;;
39788;SDS011;25478;42.626;23.320;2022-07-04T03:01:02;14.93;;;10.20;;
39788;SDS011;25478;42.626;23.320;2022-07-04T03:03:27;15.95;;;10.05;;
39788;SDS011;25478;42.626;23.320;2022-07-04T03:05:53;15.45;;;10.35;;
39788;SDS011;25478;42.626;23.320;2022-07-04T03:08:19;15.45;;;10.65;;
39788;SDS011;25478;42.626;23.320;2022-07-04T03:10:44;15.75;;;10.23;;
39788;SDS011;25478;42.626;23.320;2022-07-04T03:13:10;11.55;;;8.85;;
39788;SDS011;25478;42.626;23.320;2022-07-04T03:15:36;11.23;;;8.80;;
39788;SDS011;25478;42.626;23.320;2022-07-04T03:18:01;12.35;;;8.43;;
39788;SDS011;25478;42.626;23.320;2022-07-04T03:20:27;11.93;;;8.90;;
39788;SDS011;25478;42.626;23.320;2022-07-04T03:22:52;11.88;;;7.82;;
39788;SDS011;25478;42.626;23.320;2022-07-04T03:25:19;10.82;;;7.88;;
39788;SDS011;25478;42.626;23.320;2022-07-04T03:27:45;12.48;;;8.13;;
39788;SDS011;25478;42.626;23.320;2022-07-04T03:30:11;9.70;;;7.65;;
39788;SDS011;25478;42.626;23.320;2022-07-04T03:32:38;10.60;;;7.25;;
39788;SDS011;25478;42.626;23.320;2022-07-04T03:35:04;9.82;;;7.32;;
39788;SDS011;25478;42.626;23.320;2022-07-04T03:37:30;11.13;;;7.03;;
39788;SDS011;25478;42.626;23.320;2022-07-04T03:39:56;9.52;;;7.55;;
39788;SDS011;25478;42.626;23.320;2022-07-04T03:42:21;8.90;;;7.32;;
39788;SDS011;25478;42.626;23.320;2022-07-04T03:44:47;10.32;;;7.28;;
39788;SDS011;25478;42.626;23.320;2022-07-04T03:47:13;10.80;;;8.13;;
39788;SDS011;25478;42.626;23.320;2022-07-04T03:49:38;9.40;;;8.00;;
39788;SDS011;25478;42.626;23.320;2022-07-04T03:52:04;10.40;;;7.75;;
39788;SDS011;25478;42.626;23.320;2022-07-04T03:54:30;8.73;;;6.95;;
39788;SDS011;25478;42.626;23.320;2022-07-04T03:56:55;11.13;;;7.22;;
39788;SDS011;25478;42.626;23.320;2022-07-04T03:59:21;10.75;;;6.68;;
39788;SDS011;25478;42.626;23.320;2022-07-04T04:01:46;9.60;;;6.55;;
39788;SDS011;25478;42.626;23.320;2022-07-04T04:04:12;11.63;;;6.47;;
39788;SDS011;25478;42.626;23.320;2022-07-04T04:06:56;7.10;;;5.85;;
39788;SDS011;25478;42.626;23.320;2022-07-04T04:09:21;8.75;;;6.47;;
39788;SDS011;25478;42.626;23.320;2022-07-04T04:11:50;12.75;;;8.52;;
39788;SDS011;25478;42.626;23.320;2022-07-04T04:14:18;11.07;;;8.38;;
39788;SDS011;25478;42.626;23.320;2022-07-04T04:16:44;11.90;;;9.40;;
39788;SDS011;25478;42.626;23.320;2022-07-04T04:19:10;12.30;;;8.75;;
39788;SDS011;25478;42.626;23.320;2022-07-04T04:21:35;9.38;;;6.97;;
39788;SDS011;25478;42.626;23.320;2022-07-04T04:24:01;9.07;;;5.93;;
39788;SDS011;25478;42.626;23.320;2022-07-04T04:26:27;8.48;;;5.78;;
39788;SDS011;25478;42.626;23.320;2022-07-04T04:28:53;10.25;;;6.40;;
39788;SDS011;25478;42.626;23.320;2022-07-04T04:31:18;9.88;;;6.15;;
39788;SDS011;25478;42.626;23.320;2022-07-04T04:33:44;11.95;;;6.25;;
39788;SDS011;25478;42.626;23.320;2022-07-04T04:36:09;8.55;;;6.13;;
39788;SDS011;25478;42.626;23.320;2022-07-04T04:38:35;8.75;;;5.80;;
39788;SDS011;25478;42.626;23.320;2022-07-04T04:41:01;10.38;;;6.38;;
39788;SDS011;25478;42.626;23.320;2022-07-04T04:43:26;8.68;;;6.13;;
39788;SDS011;25478;42.626;23.320;2022-07-04T04:45:52;7.32;;;6.38;;
39788;SDS011;25478;42.626;23.320;2022-07-04T04:48:18;9.13;;;6.43;;
39788;SDS011;25478;42.626;23.320;2022-07-04T04:50:43;11.45;;;6.35;;
39788;SDS011;25478;42.626;23.320;2022-07-04T04:53:09;10.88;;;6.82;;
39788;SDS011;25478;42.626;23.320;2022-07-04T04:55:34;9.70;;;6.50;;
39788;SDS011;25478;42.626;23.320;2022-07-04T04:58:00;11.10;;;7.05;;
39788;SDS011;25478;42.626;23.320;2022-07-04T05:00:25;11.10;;;7.30;;
39788;SDS011;25478;42.626;23.320;2022-07-04T05:02:51;8.45;;;6.22;;
39788;SDS011;25478;42.626;23.320;2022-07-04T05:05:17;9.40;;;6.82;;
39788;SDS011;25478;42.626;23.320;2022-07-04T05:07:42;12.05;;;6.45;;
39788;SDS011;25478;42.626;23.320;2022-07-04T05:10:08;10.40;;;7.00;;
39788;SDS011;25478;42.626;23.320;2022-07-04T05:12:34;9.85;;;6.25;;
39788;SDS011;25478;42.626;23.320;2022-07-04T05:15:00;14.02;;;6.35;;
39788;SDS011;25478;42.626;23.320;2022-07-04T05:17:26;9.45;;;6.57;;
39788;SDS011;25478;42.626;23.320;2022-07-04T05:19:51;8.95;;;5.32;;
39788;SDS011;25478;42.626;23.320;2022-07-04T05:22:17;7.07;;;5.47;;
39788;SDS011;25478;42.626;23.320;2022-07-04T05:24:43;10.15;;;6.18;;
39788;SDS011;25478;42.626;23.320;2022-07-04T05:27:08;10.63;;;6.07;;
39788;SDS011;25478;42.626;23.320;2022-07-04T05:29:34;8.73;;;5.88;;
39788;SDS011;25478;42.626;23.320;2022-07-04T05:32:00;14.23;;;6.45;;
39788;SDS011;25478;42.626;23.320;2022-07-04T05:34:26;9.18;;;6.50;;
39788;SDS011;25478;42.626;23.320;2022-07-04T05:36:51;12.10;;;5.93;;
39788;SDS011;25478;42.626;23.320;2022-07-04T05:39:17;7.95;;;5.18;;
39788;SDS011;25478;42.626;23.320;2022-07-04T05:41:42;8.93;;;5.50;;
39788;SDS011;25478;42.626;23.320;2022-07-04T05:44:08;8.13;;;5.43;;
39788;SDS011;25478;42.626;23.320;2022-07-04T05:46:33;12.32;;;6.05;;
39788;SDS011;25478;42.626;23.320;2022-07-04T05:48:59;12.32;;;5.72;;
39788;SDS011;25478;42.626;23.320;2022-07-04T05:51:24;9.07;;;6.00;;
39788;SDS011;25478;42.626;23.320;2022-07-04T05:53:50;8.85;;;5.95;;
39788;SDS011;25478;42.626;23.320;2022-07-04T05:56:16;7.90;;;5.53;;
39788;SDS011;25478;42.626;23.320;2022-07-04T05:58:41;12.65;;;5.78;;
39788;SDS011;25478;42.626;23.320;2022-07-04T06:01:07;7.80;;;5.80;;
39788;SDS011;25478;42.626;23.320;2022-07-04T06:03:36;9.88;;;5.85;;
39788;SDS011;25478;42.626;23.320;2022-07-04T06:06:05;13.93;;;6.18;;
39788;SDS011;25478;42.626;23.320;2022-07-04T06:08:32;9.73;;;5.88;;
39788;SDS011;25478;42.626;23.320;2022-07-04T06:10:58;11.07;;;6.05;;
39788;SDS011;25478;42.626;23.320;2022-07-04T06:13:24;9.68;;;6.05;;
39788;SDS011;25478;42.626;23.320;2022-07-04T06:15:49;8.98;;;5.63;;
39788;SDS011;25478;42.626;23.320;2022-07-04T06:18:15;8.68;;;6.72;;
39788;SDS011;25478;42.626;23.320;2022-07-04T06:20:41;10.88;;;5.97;;
39788;SDS011;25478;42.626;23.320;2022-07-04T06:23:07;9.25;;;6.32;;
39788;SDS011;25478;42.626;23.320;2022-07-04T06:25:33;11.15;;;6.38;;
39788;SDS011;25478;42.626;23.320;2022-07-04T06:27:59;12.40;;;6.70;;
39788;SDS011;25478;42.626;23.320;2022-07-04T06:30:25;10.65;;;6.47;;
39788;SDS011;25478;42.626;23.320;2022-07-04T06:32:52;14.85;;;6.95;;
39788;SDS011;25478;42.626;23.320;2022-07-04T06:35:20;11.18;;;6.25;;
39788;SDS011;25478;42.626;23.320;2022-07-04T06:38:09;11.55;;;6.40;;
39788;SDS011;25478;42.626;23.320;2022-07-04T06:40:37;9.55;;;5.72;;
39788;SDS011;25478;42.626;23.320;2022-07-04T06:43:02;7.60;;;5.50;;
39788;SDS011;25478;42.626;23.320;2022-07-04T06:45:28;8.23;;;5.60;;
39788;SDS011;25478;42.626;23.320;2022-07-04T06:47:54;9.15;;;5.78;;
39788;SDS011;25478;42.626;23.320;2022-07-04T06:50:20;7.78;;;4.97;;
39788;SDS011;25478;42.626;23.320;2022-07-04T06:52:45;13.15;;;5.63;;
39788;SDS011;25478;42.626;23.320;2022-07-04T06:55:11;16.35;;;5.70;;
39788;SDS011;25478;42.626;23.320;2022-07-04T06:57:36;12.02;;;5.20;;
39788;SDS011;25478;42.626;23.320;2022-07-04T07:00:03;8.80;;;5.40;;
39788;SDS011;25478;42.626;23.320;2022-07-04T07:02:30;6.97;;;4.70;;
39788;SDS011;25478;42.626;23.320;2022-07-04T07:04:55;9.45;;;5.20;;
39788;SDS011;25478;42.626;23.320;2022-07-04T07:07:22;9.18;;;5.25;;
39788;SDS011;25478;42.626;23.320;2022-07-04T07:09:50;13.13;;;5.68;;
39788;SDS011;25478;42.626;23.320;2022-07-04T07:12:16;10.30;;;5.80;;
39788;SDS011;25478;42.626;23.320;2022-07-04T07:14:42;9.85;;;5.63;;
39788;SDS011;25478;42.626;23.320;2022-07-04T07:17:07;12.00;;;5.00;;
39788;SDS011;25478;42.626;23.320;2022-07-04T07:19:33;9.13;;;5.40;;
39788;SDS011;25478;42.626;23.320;2022-07-04T07:21:59;11.57;;;6.00;;
39788;SDS011;25478;42.626;23.320;2022-07-04T07:24:24;9.10;;;5.07;;
39788;SDS011;25478;42.626;23.320;2022-07-04T07:26:51;10.02;;;5.60;;
39788;SDS011;25478;42.626;23.320;2022-07-04T07:29:17;9.00;;;5.40;;
39788;SDS011;25478;42.626;23.320;2022-07-04T07:31:43;10.27;;;5.85;;
39788;SDS011;25478;42.626;23.320;2022-07-04T07:34:09;11.40;;;5.55;;
39788;SDS011;25478;42.626;23.320;2022-07-04T07:36:34;13.90;;;5.57;;
39788;SDS011;25478;42.626;23.320;2022-07-04T07:39:00;9.50;;;6.00;;
39788;SDS011;25478;42.626;23.320;2022-07-04T07:41:25;7.20;;;5.35;;
39788;SDS011;25478;42.626;23.320;2022-07-04T07:43:51;9.00;;;5.75;;
39788;SDS011;25478;42.626;23.320;2022-07-04T07:46:17;11.25;;;5.72;;
39788;SDS011;25478;42.626;23.320;2022-07-04T07:48:42;9.48;;;5.22;;
39788;SDS011;25478;42.626;23.320;2022-07-04T07:51:09;11.95;;;5.82;;
39788;SDS011;25478;42.626;23.320;2022-07-04T07:53:35;8.27;;;5.40;;
39788;SDS011;25478;42.626;23.320;2022-07-04T07:56:01;8.63;;;5.70;;
39788;SDS011;25478;42.626;23.320;2022-07-04T07:58:26;11.65;;;5.80;;
39788;SDS011;25478;42.626;23.320;2022-07-04T08:00:52;9.93;;;5.60;;
39788;SDS011;25478;42.626;23.320;2022-07-04T08:03:17;14.57;;;6.10;;
39788;SDS011;25478;42.626;23.320;2022-07-04T08:06:02;11.70;;;5.55;;
39788;SDS011;25478;42.626;23.320;2022-07-04T08:08:27;8.52;;;4.97;;
39788;SDS011;25478;42.626;23.320;2022-07-04T08:10:53;10.02;;;5.32;;
39788;SDS011;25478;42.626;23.320;2022-07-04T08:13:18;7.60;;;5.43;;
39788;SDS011;25478;42.626;23.320;2022-07-04T08:15:44;6.72;;;5.15;;
39788;SDS011;25478;42.626;23.320;2022-07-04T08:18:10;12.32;;;5.72;;
39788;SDS011;25478;42.626;23.320;2022-07-04T08:20:35;8.45;;;5.28;;
39788;SDS011;25478;42.626;23.320;2022-07-04T08:23:01;9.38;;;5.55;;
39788;SDS011;25478;42.626;23.320;2022-07-04T08:25:26;11.05;;;5.20;;
39788;SDS011;25478;42.626;23.320;2022-07-04T08:27:52;9.63;;;5.50;;
39788;SDS011;25478;42.626;23.320;2022-07-04T08:30:17;10.95;;;5.65;;
39788;SDS011;25478;42.626;23.320;2022-07-04T08:32:43;10.15;;;5.57;;
39788;SDS011;25478;42.626;23.320;2022-07-04T08:35:08;10.07;;;5.25;;
39788;SDS011;25478;42.626;23.320;2022-07-04T08:37:34;9.35;;;5.88;;
39788;SDS011;25478;42.626;23.320;2022-07-04T08:39:59;10.73;;;6.50;;
39788;SDS011;25478;42.626;23.320;2022-07-04T08:42:27;10.73;;;5.90;;
39788;SDS011;25478;42.626;23.320;2022-07-04T08:44:59;10.02;;;6.20;;
39788;SDS011;25478;42.626;23.320;2022-07-04T08:47:26;10.55;;;6.20;;
39788;SDS011;25478;42.626;23.320;2022-07-04T08:53:15;8.40;;;6.10;;
39788;SDS011;25478;42.626;23.320;2022-07-04T08:55:19;11.88;;;6.00;;
39788;SDS011;25478;42.626;23.320;2022-07-04T08:58:03;9.32;;;6.18;;
39788;SDS011;25478;42.626;23.320;2022-07-04T09:00:49;8.18;;;5.72;;
39788;SDS011;25478;42.626;23.320;2022-07-04T09:03:16;9.43;;;6.10;;
39788;SDS011;25478;42.626;23.320;2022-07-04T09:05:43;8.75;;;6.60;;
39788;SDS011;25478;42.626;23.320;2022-07-04T09:08:09;11.05;;;6.35;;
39788;SDS011;25478;42.626;23.320;2022-07-04T09:10:35;11.27;;;6.57;;
39788;SDS011;25478;42.626;23.320;2022-07-04T09:13:02;8.68;;;6.13;;
39788;SDS011;25478;42.626;23.320;2022-07-04T09:15:29;9.43;;;6.60;;
39788;SDS011;25478;42.626;23.320;2022-07-04T09:17:55;9.63;;;5.88;;
39788;SDS011;25478;42.626;23.320;2022-07-04T09:20:21;8.52;;;6.43;;
39788;SDS011;25478;42.626;23.320;2022-07-04T09:22:49;8.95;;;6.72;;
39788;SDS011;25478;42.626;23.320;2022-07-04T09:25:16;7.72;;;6.03;;
39788;SDS011;25478;42.626;23.320;2022-07-04T09:27:46;7.07;;;6.05;;
39788;SDS011;25478;42.626;23.320;2022-07-04T09:30:14;8.70;;;6.57;;
39788;SDS011;25478;42.626;23.320;2022-07-04T09:32:43;7.68;;;5.95;;
39788;SDS011;25478;42.626;23.320;2022-07-04T09:37:41;12.02;;;6.63;;
39788;SDS011;25478;42.626;23.320;2022-07-04T09:40:20;8.80;;;6.22;;
39788;SDS011;25478;42.626;23.320;2022-07-04T09:42:50;7.60;;;6.53;;
39788;SDS011;25478;42.626;23.320;2022-07-04T09:45:16;8.75;;;6.68;;
39788;SDS011;25478;42.626;23.320;2022-07-04T09:47:44;9.00;;;6.47;;
39788;SDS011;25478;42.626;23.320;2022-07-04T09:50:19;7.10;;;5.78;;
39788;SDS011;25478;42.626;23.320;2022-07-04T09:52:46;9.23;;;6.35;;
39788;SDS011;25478;42.626;23.320;2022-07-04T09:55:26;9.73;;;6.32;;
39788;SDS011;25478;42.626;23.320;2022-07-04T09:57:59;7.20;;;6.32;;
39788;SDS011;25478;42.626;23.320;2022-07-04T10:00:30;9.25;;;6.63;;
39788;SDS011;25478;42.626;23.320;2022-07-04T10:03:19;7.75;;;6.10;;
39788;SDS011;25478;42.626;23.320;2022-07-04T10:06:09;8.85;;;6.03;;
39788;SDS011;25478;42.626;23.320;2022-07-04T10:08:38;7.75;;;6.53;;
39788;SDS011;25478;42.626;23.320;2022-07-04T10:11:05;10.50;;;6.32;;
39788;SDS011;25478;42.626;23.320;2022-07-04T10:13:32;7.80;;;6.38;;
39788;SDS011;25478;42.626;23.320;2022-07-04T10:15:58;9.43;;;6.88;;
39788;SDS011;25478;42.626;23.320;2022-07-04T10:18:24;8.52;;;6.93;;
39788;SDS011;25478;42.626;23.320;2022-07-04T10:20:51;7.47;;;6.70;;
39788;SDS011;25478;42.626;23.320;2022-07-04T10:23:19;9.45;;;6.85;;
39788;SDS011;25478;42.626;23.320;2022-07-04T10:25:48;8.85;;;7.30;;
39788;SDS011;25478;42.626;23.320;2022-07-04T10:28:15;9.32;;;6.45;;
39788;SDS011;25478;42.626;23.320;2022-07-04T10:30:48;10.40;;;6.32;;
39788;SDS011;25478;42.626;23.320;2022-07-04T10:33:20;8.43;;;6.63;;
39788;SDS011;25478;42.626;23.320;2022-07-04T10:35:52;10.73;;;6.57;;
39788;SDS011;25478;42.626;23.320;2022-07-04T10:38:23;7.25;;;6.35;;
39788;SDS011;25478;42.626;23.320;2022-07-04T10:40:53;8.43;;;6.82;;
39788;SDS011;25478;42.626;23.320;2022-07-04T10:45:50;9.13;;;6.60;;
39788;SDS011;25478;42.626;23.320;2022-07-04T10:48:20;7.55;;;6.53;;
39788;SDS011;25478;42.626;23.320;2022-07-04T10:50:59;7.90;;;7.10;;
39788;SDS011;25478;42.626;23.320;2022-07-04T10:53:26;7.40;;;6.55;;
39788;SDS011;25478;42.626;23.320;2022-07-04T10:55:52;11.48;;;6.25;;
39788;SDS011;25478;42.626;23.320;2022-07-04T11:01:16;7.88;;;6.82;;
39788;SDS011;25478;42.626;23.320;2022-07-04T11:03:46;12.05;;;7.55;;
39788;SDS011;25478;42.626;23.320;2022-07-04T11:11:57;8.07;;;6.78;;
39788;SDS011;25478;42.626;23.320;2022-07-04T11:17:10;9.38;;;6.97;;
39788;SDS011;25478;42.626;23.320;2022-07-04T11:19:37;9.90;;;6.63;;
39788;SDS011;25478;42.626;23.320;2022-07-04T11:22:04;9.38;;;6.82;;
39788;SDS011;25478;42.626;23.320;2022-07-04T11:24:31;13.63;;;6.95;;
39788;SDS011;25478;42.626;23.320;2022-07-04T11:26:57;10.32;;;6.72;;
39788;SDS011;25478;42.626;23.320;2022-07-04T11:29:23;7.50;;;6.70;;
39788;SDS011;25478;42.626;23.320;2022-07-04T11:31:50;6.95;;;6.25;;
39788;SDS011;25478;42.626;23.320;2022-07-04T11:34:17;9.20;;;6.60;;
39788;SDS011;25478;42.626;23.320;2022-07-04T11:36:44;9.38;;;6.65;;
39788;SDS011;25478;42.626;23.320;2022-07-04T11:39:12;8.95;;;6.88;;
39788;SDS011;25478;42.626;23.320;2022-07-04T11:41:40;7.68;;;6.55;;
39788;SDS011;25478;42.626;23.320;2022-07-04T11:44:32;9.45;;;6.40;;
39788;SDS011;25478;42.626;23.320;2022-07-04T11:47:31;8.25;;;6.40;;
39788;SDS011;25478;42.626;23.320;2022-07-04T11:50:19;7.93;;;6.93;;
39788;SDS011;25478;42.626;23.320;2022-07-04T11:52:46;10.65;;;7.03;;
39788;SDS011;25478;42.626;23.320;2022-07-04T11:55:14;9.27;;;6.68;;
39788;SDS011;25478;42.626;23.320;2022-07-04T11:57:42;8.85;;;6.28;;
39788;SDS011;25478;42.626;23.320;2022-07-04T12:00:10;7.85;;;6.85;;
39788;SDS011;25478;42.626;23.320;2022-07-04T12:02:37;8.63;;;6.40;;
39788;SDS011;25478;42.626;23.320;2022-07-04T12:05:06;8.27;;;6.38;;
39788;SDS011;25478;42.626;23.320;2022-07-04T12:07:36;7.67;;;6.20;;
39788;SDS011;25478;42.626;23.320;2022-07-04T12:10:07;8.80;;;7.07;;
39788;SDS011;25478;42.626;23.320;2022-07-04T12:12:57;11.02;;;6.65;;
39788;SDS011;25478;42.626;23.320;2022-07-04T12:15:23;10.05;;;6.45;;
39788;SDS011;25478;42.626;23.320;2022-07-04T12:17:54;7.50;;;6.63;;
39788;SDS011;25478;42.626;23.320;2022-07-04T12:20:23;10.25;;;6.85;;
39788;SDS011;25478;42.626;23.320;2022-07-04T12:22:50;8.52;;;6.68;;
39788;SDS011;25478;42.626;23.320;2022-07-04T12:25:24;7.90;;;6.53;;
39788;SDS011;25478;42.626;23.320;2022-07-04T12:28:00;11.45;;;6.65;;
39788;SDS011;25478;42.626;23.320;2022-07-04T12:30:27;8.23;;;6.75;;
39788;SDS011;25478;42.626;23.320;2022-07-04T12:32:59;10.07;;;7.00;;
39788;SDS011;25478;42.626;23.320;2022-07-04T12:35:37;8.18;;;7.25;;
39788;SDS011;25478;42.626;23.320;2022-07-04T12:40:35;9.70;;;6.95;;
39788;SDS011;25478;42.626;23.320;2022-07-04T12:43:02;9.68;;;6.90;;
39788;SDS011;25478;42.626;23.320;2022-07-04T12:45:44;11.10;;;6.95;;
39788;SDS011;25478;42.626;23.320;2022-07-04T12:48:15;7.88;;;7.07;;
39788;SDS011;25478;42.626;23.320;2022-07-04T12:50:42;7.88;;;6.70;;
39788;SDS011;25478;42.626;23.320;2022-07-04T12:53:08;7.88;;;6.88;;
39788;SDS011;25478;42.626;23.320;2022-07-04T12:55:36;7.88;;;6.53;;
39788;SDS011;25478;42.626;23.320;2022-07-04T12:58:04;11.35;;;6.88;;
39788;SDS011;25478;42.626;23.320;2022-07-04T13:00:29;9.48;;;7.00;;
39788;SDS011;25478;42.626;23.320;2022-07-04T13:02:55;8.65;;;7.18;;
39788;SDS011;25478;42.626;23.320;2022-07-04T13:05:21;9.80;;;7.20;;
39788;SDS011;25478;42.626;23.320;2022-07-04T13:07:46;9.82;;;6.95;;
39788;SDS011;25478;42.626;23.320;2022-07-04T13:10:12;8.68;;;6.50;;
39788;SDS011;25478;42.626;23.320;2022-07-04T13:12:37;7.60;;;6.80;;
39788;SDS011;25478;42.626;23.320;2022-07-04T13:15:03;10.27;;;7.13;;
39788;SDS011;25478;42.626;23.320;2022-07-04T13:17:30;8.70;;;7.20;;
39788;SDS011;25478;42.626;23.320;2022-07-04T13:19:56;7.70;;;6.90;;
39788;SDS011;25478;42.626;23.320;2022-07-04T13:22:22;9.27;;;7.35;;
39788;SDS011;25478;42.626;23.320;2022-07-04T13:24:49;8.40;;;6.80;;
39788;SDS011;25478;42.626;23.320;2022-07-04T13:27:16;7.63;;;6.82;;
39788;SDS011;25478;42.626;23.320;2022-07-04T13:29:42;7.22;;;6.53;;
39788;SDS011;25478;42.626;23.320;2022-07-04T13:32:08;7.68;;;6.38;;
39788;SDS011;25478;42.626;23.320;2022-07-04T13:34:34;8.23;;;6.60;;
39788;SDS011;25478;42.626;23.320;2022-07-04T13:37:01;8.38;;;6.53;;
39788;SDS011;25478;42.626;23.320;2022-07-04T13:39:27;8.35;;;6.82;;
39788;SDS011;25478;42.626;23.320;2022-07-04T13:41:52;9.60;;;7.00;;
39788;SDS011;25478;42.626;23.320;2022-07-04T13:44:18;8.00;;;6.80;;
39788;SDS011;25478;42.626;23.320;2022-07-04T13:46:43;9.52;;;6.68;;
39788;SDS011;25478;42.626;23.320;2022-07-04T13:49:09;8.80;;;6.45;;
39788;SDS011;25478;42.626;23.320;2022-07-04T13:51:36;7.90;;;6.50;;
39788;SDS011;25478;42.626;23.320;2022-07-04T13:54:02;7.75;;;6.75;;
39788;SDS011;25478;42.626;23.320;2022-07-04T13:56:28;9.23;;;6.47;;
39788;SDS011;25478;42.626;23.320;2022-07-04T13:58:54;7.70;;;6.50;;
39788;SDS011;25478;42.626;23.320;2022-07-04T14:01:20;7.60;;;6.80;;
39788;SDS011;25478;42.626;23.320;2022-07-04T14:03:47;9.82;;;6.88;;
39788;SDS011;25478;42.626;23.320;2022-07-04T14:06:14;8.82;;;6.43;;
39788;SDS011;25478;42.626;23.320;2022-07-04T14:08:42;9.35;;;6.90;;
39788;SDS011;25478;42.626;23.320;2022-07-04T14:11:07;8.10;;;6.80;;
39788;SDS011;25478;42.626;23.320;2022-07-04T14:13:33;9.63;;;6.85;;
39788;SDS011;25478;42.626;23.320;2022-07-04T14:15:59;7.70;;;6.90;;
39788;SDS011;25478;42.626;23.320;2022-07-04T14:18:25;10.13;;;7.32;;
39788;SDS011;25478;42.626;23.320;2022-07-04T14:20:51;9.70;;;6.70;;
39788;SDS011;25478;42.626;23.320;2022-07-04T14:23:17;8.30;;;7.00;;
39788;SDS011;25478;42.626;23.320;2022-07-04T14:26:03;10.52;;;7.57;;
39788;SDS011;25478;42.626;23.320;2022-07-04T14:28:29;7.75;;;6.95;;
39788;SDS011;25478;42.626;23.320;2022-07-04T14:30:55;8.07;;;6.68;;
39788;SDS011;25478;42.626;23.320;2022-07-04T14:33:20;9.60;;;7.13;;
39788;SDS011;25478;42.626;23.320;2022-07-04T14:35:46;8.18;;;7.32;;
39788;SDS011;25478;42.626;23.320;2022-07-04T14:38:11;9.18;;;7.05;;
39788;SDS011;25478;42.626;23.320;2022-07-04T14:40:37;7.38;;;6.68;;
39788;SDS011;25478;42.626;23.320;2022-07-04T14:43:04;7.65;;;6.82;;
39788;SDS011;25478;42.626;23.320;2022-07-04T14:45:30;8.38;;;7.10;;
39788;SDS011;25478;42.626;23.320;2022-07-04T14:47:56;8.18;;;6.93;;
39788;SDS011;25478;42.626;23.320;2022-07-04T14:50:21;9.48;;;7.10;;